createdAt,value
2023-01-13T00:01:10.632Z,13.93
2023-01-13T00:06:53.785Z,13.92
2023-01-13T00:12:38.184Z,13.83
2023-01-13T00:18:22.206Z,13.81
2023-01-13T00:24:05.393Z,13.76
2023-01-13T00:29:48.240Z,13.72
2023-01-13T00:35:31.193Z,13.7
2023-01-13T00:41:15.035Z,13.66
2023-01-13T00:46:57.848Z,13.67
2023-01-13T00:52:42.117Z,13.65
2023-01-13T00:58:25.056Z,13.61
2023-01-13T01:04:08.006Z,13.58
2023-01-13T01:09:50.889Z,13.52
2023-01-13T01:15:33.628Z,13.51
2023-01-13T01:21:16.807Z,13.49
2023-01-13T01:26:59.674Z,13.41
2023-01-13T01:32:42.585Z,13.35
2023-01-13T01:38:25.554Z,13.3
2023-01-13T01:44:19.279Z,13.26
2023-01-13T01:50:02.838Z,13.29
2023-01-13T01:55:46.111Z,13.26
2023-01-13T02:01:29.094Z,13.24
2023-01-13T02:07:27.314Z,13.2
2023-01-13T02:13:11.794Z,13.24
2023-01-13T02:19:02.176Z,13.24
2023-01-13T02:24:56.625Z,13.18
2023-01-13T02:30:46.818Z,13.15
2023-01-13T02:36:33.866Z,13.11
2023-01-13T02:42:18.672Z,13.07
2023-01-13T02:48:05.244Z,13.04
2023-01-13T02:53:53.405Z,13.01
2023-01-13T02:59:37.320Z,12.96
2023-01-13T03:05:20.318Z,12.95
2023-01-13T03:11:07.977Z,12.92
2023-01-13T03:16:59.021Z,12.94
2023-01-13T03:22:44.815Z,12.96
2023-01-13T03:28:29.368Z,12.95
2023-01-13T03:34:15.389Z,12.93
2023-01-13T03:40:00.578Z,12.95
2023-01-13T03:45:44.793Z,12.94
2023-01-13T03:51:29.112Z,12.94
2023-01-13T03:57:15.602Z,12.95
2023-01-13T04:03:03.692Z,12.98
2023-01-13T04:08:50.888Z,12.99
2023-01-13T04:14:35.433Z,12.99
2023-01-13T04:20:18.511Z,12.98
2023-01-13T04:26:01.378Z,12.98
2023-01-13T04:31:44.155Z,13.01
2023-01-13T04:37:27.002Z,12.98
2023-01-13T04:43:10.021Z,13
2023-01-13T04:48:52.849Z,13
2023-01-13T04:54:35.771Z,12.96
2023-01-13T05:00:20.579Z,12.96
2023-01-13T05:06:03.691Z,12.96
2023-01-13T05:11:46.496Z,12.95
2023-01-13T05:17:30.626Z,12.96
2023-01-13T05:23:13.606Z,12.93
2023-01-13T05:28:56.519Z,12.89
2023-01-13T05:34:39.250Z,12.88
2023-01-13T05:40:22.218Z,12.83
2023-01-13T05:46:06.663Z,12.83
2023-01-13T05:51:50.762Z,12.83
2023-01-13T05:57:33.733Z,12.8
2023-01-13T06:03:17.525Z,12.79
2023-01-13T06:09:00.938Z,12.76
2023-01-13T06:14:43.617Z,12.72
2023-01-13T06:20:26.832Z,12.73
2023-01-13T06:26:15.367Z,12.71
2023-01-13T06:31:58.946Z,12.67
2023-01-13T06:37:43.135Z,12.78
2023-01-13T06:43:26.064Z,12.69
2023-01-13T06:49:09.001Z,12.63
2023-01-13T06:54:51.746Z,12.58
2023-01-13T07:00:35.188Z,12.57
2023-01-13T07:06:18.579Z,12.56
2023-01-13T07:12:01.463Z,12.52
2023-01-13T07:17:44.327Z,12.53
2023-01-13T07:23:28.153Z,12.49
2023-01-13T07:29:11.193Z,12.47
2023-01-13T07:34:55.091Z,12.48
2023-01-13T07:40:39.098Z,12.48
2023-01-13T07:46:21.905Z,12.53
2023-01-13T07:52:05.117Z,12.53
2023-01-13T07:57:47.873Z,12.52
2023-01-13T08:03:30.462Z,12.53
2023-01-13T08:09:13.635Z,12.54
2023-01-13T08:14:56.335Z,12.58
2023-01-13T08:20:39.289Z,12.69
2023-01-13T08:26:23.391Z,12.72
2023-01-13T08:32:06.364Z,12.71
2023-01-13T08:37:49.846Z,12.75
2023-01-13T08:43:32.638Z,12.84
2023-01-13T08:49:15.869Z,12.93
2023-01-13T08:54:58.678Z,12.97
2023-01-13T09:00:41.725Z,12.97
2023-01-13T09:06:24.549Z,13.02
2023-01-13T09:12:10.414Z,13.14
2023-01-13T09:17:53.340Z,13.18
2023-01-13T09:23:36.732Z,13.17
2023-01-13T09:29:20.060Z,13.2
2023-01-13T09:35:03.171Z,13.18
2023-01-13T09:40:47.865Z,13.14
2023-01-13T09:46:33.372Z,13.13
2023-01-13T09:52:18.276Z,13.09
2023-01-13T09:58:01.629Z,13.13
2023-01-13T10:03:44.799Z,13.25
2023-01-13T10:09:32.732Z,13.29
2023-01-13T10:15:22.365Z,13.33
2023-01-13T10:21:11.087Z,13.36
2023-01-13T10:26:58.992Z,13.4
2023-01-13T10:32:42.907Z,13.51
2023-01-13T10:38:27.194Z,13.64
2023-01-13T10:44:14.663Z,13.73
2023-01-13T10:50:09.708Z,13.9
2023-01-13T10:56:03.224Z,14.06
2023-01-13T11:01:53.116Z,14.08
2023-01-13T11:07:38.981Z,14.24
2023-01-13T11:13:26.925Z,14.33
2023-01-13T11:19:12.398Z,14.38
2023-01-13T11:24:58.243Z,14.32
2023-01-13T11:30:43.489Z,14.36
2023-01-13T11:36:30.872Z,14.28
2023-01-13T11:42:18.528Z,14.33
2023-01-13T11:48:02.594Z,14.34
2023-01-13T11:53:56.581Z,14.37
2023-01-13T11:59:50.780Z,14.43
2023-01-13T12:05:37.222Z,14.61
2023-01-13T12:11:25.293Z,14.63
2023-01-13T12:17:13.730Z,14.71
2023-01-13T12:22:59.761Z,14.71
2023-01-13T12:28:48.247Z,14.79
2023-01-13T12:34:38.927Z,14.8
2023-01-13T12:40:28.377Z,14.82
2023-01-13T12:46:23.030Z,14.77
2023-01-13T12:52:16.655Z,14.79
2023-01-13T12:58:02.584Z,14.8
2023-01-13T13:03:50.589Z,14.75
2023-01-13T13:09:38.088Z,14.73
2023-01-13T13:15:24.736Z,14.63
2023-01-13T13:21:09.261Z,14.7
2023-01-13T13:26:52.339Z,14.73
2023-01-13T13:32:46.867Z,14.7
2023-01-13T13:38:38.228Z,14.63
2023-01-13T13:44:22.149Z,14.61
2023-01-13T13:50:07.137Z,14.59
2023-01-13T13:55:57.914Z,14.5
2023-01-13T14:01:42.610Z,14.52
2023-01-13T14:07:26.079Z,14.5
2023-01-13T14:13:19.154Z,14.42
2023-01-13T14:19:02.075Z,14.41
2023-01-13T14:24:48.941Z,14.39
2023-01-13T14:30:33.467Z,14.34
2023-01-13T14:36:20.982Z,14.31
2023-01-13T14:42:03.946Z,14.23
2023-01-13T14:47:51.179Z,14.25
2023-01-13T14:53:35.997Z,14.21
2023-01-13T14:59:40.309Z,14.17
2023-01-13T15:05:33.905Z,14.25
2023-01-13T15:11:25.154Z,14.21
2023-01-13T15:17:15.438Z,14.14
2023-01-13T15:22:59.994Z,14.05
2023-01-13T15:28:43.371Z,13.99
2023-01-13T15:34:26.672Z,13.95
2023-01-13T15:40:12.103Z,13.87
2023-01-13T15:45:55.160Z,13.85
2023-01-13T15:51:38.483Z,13.83
2023-01-13T15:57:24.525Z,13.82
2023-01-13T16:03:10.956Z,13.79
2023-01-13T16:08:53.892Z,13.74
2023-01-13T16:14:36.871Z,13.7
2023-01-13T16:20:19.983Z,13.69
2023-01-13T16:26:03.933Z,13.71
2023-01-13T16:31:47.085Z,13.74
2023-01-13T16:37:30.304Z,13.72
2023-01-13T16:43:13.788Z,13.71
2023-01-13T16:49:01.453Z,13.72
2023-01-13T16:54:44.723Z,13.65
2023-01-13T17:00:27.748Z,13.59
2023-01-13T17:06:12.702Z,13.55
2023-01-13T17:11:55.513Z,13.59
2023-01-13T17:17:38.985Z,13.51
2023-01-13T17:23:22.247Z,13.47
2023-01-13T17:29:05.894Z,13.41
2023-01-13T17:34:48.993Z,13.72
2023-01-13T17:40:31.565Z,13.98
2023-01-13T17:46:15.157Z,14.11
2023-01-13T17:51:58.057Z,13.98
2023-01-13T17:57:41.008Z,13.63
2023-01-13T18:03:23.893Z,13.47
2023-01-13T18:09:06.862Z,13.36
2023-01-13T18:14:49.466Z,13.3
2023-01-13T18:20:32.453Z,13.23
2023-01-13T18:26:19.306Z,13.17
2023-01-13T18:32:02.189Z,13.12
2023-01-13T18:37:45.130Z,13.09
2023-01-13T18:43:28.246Z,13.08
2023-01-13T18:49:11.280Z,13.1
2023-01-13T18:54:54.282Z,13.07
2023-01-13T19:00:37.450Z,13.05
2023-01-13T19:06:20.529Z,13.06
2023-01-13T19:12:03.729Z,13.02
2023-01-13T19:17:47.261Z,13.06
2023-01-13T19:23:30.204Z,13.05
2023-01-13T19:29:13.093Z,13.03
2023-01-13T19:34:55.849Z,12.98
2023-01-13T19:40:38.879Z,12.96
2023-01-13T19:46:21.828Z,12.95
2023-01-13T19:52:06.214Z,12.93
2023-01-13T19:57:49.217Z,12.91
2023-01-13T20:03:32.005Z,12.91
2023-01-13T20:09:14.881Z,12.9
2023-01-13T20:14:57.569Z,12.89
2023-01-13T20:20:40.421Z,12.91
2023-01-13T20:26:23.329Z,12.91
2023-01-13T20:32:06.271Z,12.92
2023-01-13T20:37:49.203Z,12.92
2023-01-13T20:43:32.732Z,12.92
2023-01-13T20:49:16.696Z,12.93
2023-01-13T20:55:00.119Z,12.93
2023-01-13T21:00:43.655Z,12.95
2023-01-13T21:06:27.617Z,12.99
2023-01-13T21:12:13.485Z,12.95
2023-01-13T21:17:56.791Z,12.99
2023-01-13T21:23:43.798Z,12.99
2023-01-13T21:29:33.008Z,13.02
2023-01-13T21:35:17.108Z,12.99
2023-01-13T21:41:01.507Z,12.97
2023-01-13T21:46:44.212Z,12.96
2023-01-13T21:52:27.272Z,12.94
2023-01-13T21:58:13.757Z,12.95
2023-01-13T22:03:56.697Z,12.93
2023-01-13T22:09:39.496Z,12.88
2023-01-13T22:15:23.237Z,12.84
2023-01-13T22:21:06.021Z,12.83
2023-01-13T22:26:48.959Z,12.81
2023-01-13T22:32:34.750Z,12.8
2023-01-13T22:38:17.773Z,12.8
2023-01-13T22:44:00.519Z,12.77
2023-01-13T22:49:43.435Z,12.79
2023-01-13T22:55:26.641Z,12.75
2023-01-13T23:01:13.726Z,12.76
2023-01-13T23:06:56.853Z,12.74
2023-01-13T23:12:39.700Z,12.7
2023-01-13T23:18:24.044Z,12.68
2023-01-13T23:24:07.375Z,12.64
2023-01-13T23:29:50.419Z,12.61
2023-01-13T23:35:35.617Z,12.58
2023-01-13T23:41:19.783Z,12.54
2023-01-13T23:47:02.787Z,12.51
2023-01-13T23:52:46.806Z,12.47
2023-01-13T23:58:30.397Z,12.43
